sensor_id;sensor_type;location;lat;lon;timestamp;temperature;humidity
3356;DHT22;1691;52.486;13.374;2023-01-04T00:01:31;4.70;98.70
3356;DHT22;1691;52.486;13.374;2023-01-04T00:04:00;4.70;98.70
3356;DHT22;1691;52.486;13.374;2023-01-04T00:06:28;4.70;98.70
3356;DHT22;1691;52.486;13.374;2023-01-04T00:08:55;4.70;98.70
3356;DHT22;1691;52.486;13.374;2023-01-04T00:11:23;4.70;98.70
3356;DHT22;1691;52.486;13.374;2023-01-04T00:13:55;4.70;98.70
3356;DHT22;1691;52.486;13.374;2023-01-04T00:16:27;4.70;98.70
3356;DHT22;1691;52.486;13.374;2023-01-04T00:18:57;4.70;98.70
3356;DHT22;1691;52.486;13.374;2023-01-04T00:21:26;4.70;98.70
3356;DHT22;1691;52.486;13.374;2023-01-04T00:23:57;4.70;98.70
3356;DHT22;1691;52.486;13.374;2023-01-04T00:26:31;4.70;98.70
3356;DHT22;1691;52.486;13.374;2023-01-04T00:29:03;4.70;98.70
3356;DHT22;1691;52.486;13.374;2023-01-04T00:31:34;4.70;98.70
3356;DHT22;1691;52.486;13.374;2023-01-04T00:34:04;4.70;98.70
3356;DHT22;1691;52.486;13.374;2023-01-04T00:36:32;4.70;98.70
3356;DHT22;1691;52.486;13.374;2023-01-04T00:39:00;4.70;98.70
3356;DHT22;1691;52.486;13.374;2023-01-04T00:44:27;4.70;98.70
3356;DHT22;1691;52.486;13.374;2023-01-04T00:46:55;4.70;98.70
3356;DHT22;1691;52.486;13.374;2023-01-04T00:49:22;4.70;98.70
3356;DHT22;1691;52.486;13.374;2023-01-04T00:51:49;4.70;98.70
3356;DHT22;1691;52.486;13.374;2023-01-04T00:54:18;4.70;98.70
3356;DHT22;1691;52.486;13.374;2023-01-04T00:56:46;4.70;98.70
3356;DHT22;1691;52.486;13.374;2023-01-04T00:59:14;4.70;98.70
3356;DHT22;1691;52.486;13.374;2023-01-04T01:01:43;4.70;98.70
3356;DHT22;1691;52.486;13.374;2023-01-04T01:04:12;4.70;98.70
3356;DHT22;1691;52.486;13.374;2023-01-04T01:06:41;4.70;98.70
3356;DHT22;1691;52.486;13.374;2023-01-04T01:09:08;4.70;98.70
3356;DHT22;1691;52.486;13.374;2023-01-04T01:11:36;4.80;98.70
3356;DHT22;1691;52.486;13.374;2023-01-04T01:14:05;4.80;98.70
3356;DHT22;1691;52.486;13.374;2023-01-04T01:16:32;4.80;98.70
3356;DHT22;1691;52.486;13.374;2023-01-04T01:19:19;4.90;98.70
3356;DHT22;1691;52.486;13.374;2023-01-04T01:21:46;4.90;98.70
3356;DHT22;1691;52.486;13.374;2023-01-04T01:24:16;4.90;98.70
3356;DHT22;1691;52.486;13.374;2023-01-04T01:26:43;5.00;98.70
3356;DHT22;1691;52.486;13.374;2023-01-04T01:29:11;5.00;98.70
3356;DHT22;1691;52.486;13.374;2023-01-04T01:31:39;5.00;98.70
3356;DHT22;1691;52.486;13.374;2023-01-04T01:34:07;5.00;98.70
3356;DHT22;1691;52.486;13.374;2023-01-04T01:36:35;5.00;98.70
3356;DHT22;1691;52.486;13.374;2023-01-04T01:39:03;5.00;98.70
3356;DHT22;1691;52.486;13.374;2023-01-04T01:41:33;5.00;98.70
3356;DHT22;1691;52.486;13.374;2023-01-04T01:46:58;5.00;98.70
3356;DHT22;1691;52.486;13.374;2023-01-04T01:49:35;5.00;98.70
3356;DHT22;1691;52.486;13.374;2023-01-04T01:52:05;5.00;98.70
3356;DHT22;1691;52.486;13.374;2023-01-04T01:54:40;5.00;98.70
3356;DHT22;1691;52.486;13.374;2023-01-04T01:57:13;4.90;98.70
3356;DHT22;1691;52.486;13.374;2023-01-04T01:59:43;4.90;98.70
3356;DHT22;1691;52.486;13.374;2023-01-04T02:02:11;4.90;98.70
3356;DHT22;1691;52.486;13.374;2023-01-04T02:04:42;4.80;98.70
3356;DHT22;1691;52.486;13.374;2023-01-04T02:07:13;4.80;98.70
3356;DHT22;1691;52.486;13.374;2023-01-04T02:09:43;4.70;98.70
3356;DHT22;1691;52.486;13.374;2023-01-04T02:12:12;4.70;98.70
3356;DHT22;1691;52.486;13.374;2023-01-04T02:14:43;4.70;98.70
3356;DHT22;1691;52.486;13.374;2023-01-04T02:17:44;4.70;98.70
3356;DHT22;1691;52.486;13.374;2023-01-04T02:27:04;4.60;98.70
3356;DHT22;1691;52.486;13.374;2023-01-04T02:32:42;4.60;98.70
3356;DHT22;1691;52.486;13.374;2023-01-04T02:38:15;4.60;98.70
3356;DHT22;1691;52.486;13.374;2023-01-04T02:41:04;4.60;98.70
3356;DHT22;1691;52.486;13.374;2023-01-04T02:47:03;4.50;98.70
3356;DHT22;1691;52.486;13.374;2023-01-04T02:49:33;4.50;98.70
3356;DHT22;1691;52.486;13.374;2023-01-04T02:52:19;4.50;98.70
3356;DHT22;1691;52.486;13.374;2023-01-04T02:54:53;4.50;98.70
3356;DHT22;1691;52.486;13.374;2023-01-04T02:57:41;4.50;98.70
3356;DHT22;1691;52.486;13.374;2023-01-04T03:00:37;4.50;98.70
3356;DHT22;1691;52.486;13.374;2023-01-04T03:03:56;4.50;98.70
3356;DHT22;1691;52.486;13.374;2023-01-04T03:09:44;4.50;98.70
3356;DHT22;1691;52.486;13.374;2023-01-04T03:12:25;4.40;98.70
3356;DHT22;1691;52.486;13.374;2023-01-04T03:18:10;4.40;98.70
3356;DHT22;1691;52.486;13.374;2023-01-04T03:20:49;4.40;98.70
3356;DHT22;1691;52.486;13.374;2023-01-04T03:23:33;4.40;98.70
3356;DHT22;1691;52.486;13.374;2023-01-04T03:26:38;4.40;98.70
3356;DHT22;1691;52.486;13.374;2023-01-04T03:29:53;4.40;98.70
3356;DHT22;1691;52.486;13.374;2023-01-04T03:32:54;4.40;98.70
3356;DHT22;1691;52.486;13.374;2023-01-04T03:43:44;4.40;98.70
3356;DHT22;1691;52.486;13.374;2023-01-04T03:47:08;4.40;98.70
3356;DHT22;1691;52.486;13.374;2023-01-04T03:50:32;4.40;98.70
3356;DHT22;1691;52.486;13.374;2023-01-04T03:54:13;4.30;98.70
3356;DHT22;1691;52.486;13.374;2023-01-04T03:57:25;4.30;98.70
3356;DHT22;1691;52.486;13.374;2023-01-04T04:00:35;4.30;98.70
3356;DHT22;1691;52.486;13.374;2023-01-04T04:03:44;4.30;98.70
3356;DHT22;1691;52.486;13.374;2023-01-04T04:06:46;4.30;98.70
3356;DHT22;1691;52.486;13.374;2023-01-04T04:10:07;4.30;98.70
3356;DHT22;1691;52.486;13.374;2023-01-04T04:13:03;4.30;98.70
3356;DHT22;1691;52.486;13.374;2023-01-04T04:16:10;4.30;98.70
3356;DHT22;1691;52.486;13.374;2023-01-04T04:18:53;4.30;98.70
3356;DHT22;1691;52.486;13.374;2023-01-04T04:21:42;4.30;98.70
3356;DHT22;1691;52.486;13.374;2023-01-04T04:24:49;4.30;98.70
3356;DHT22;1691;52.486;13.374;2023-01-04T04:27:34;4.30;98.70
3356;DHT22;1691;52.486;13.374;2023-01-04T04:30:20;4.30;98.70
3356;DHT22;1691;52.486;13.374;2023-01-04T04:33:31;4.30;98.70
3356;DHT22;1691;52.486;13.374;2023-01-04T04:36:07;4.30;98.70
3356;DHT22;1691;52.486;13.374;2023-01-04T04:38:59;4.30;98.70
3356;DHT22;1691;52.486;13.374;2023-01-04T04:42:07;4.30;98.70
3356;DHT22;1691;52.486;13.374;2023-01-04T04:44:52;4.30;98.70
3356;DHT22;1691;52.486;13.374;2023-01-04T04:48:06;4.30;98.70
3356;DHT22;1691;52.486;13.374;2023-01-04T04:51:21;4.30;98.70
3356;DHT22;1691;52.486;13.374;2023-01-04T04:54:00;4.30;98.70
3356;DHT22;1691;52.486;13.374;2023-01-04T04:56:38;4.40;98.70
3356;DHT22;1691;52.486;13.374;2023-01-04T04:59:16;4.40;98.70
3356;DHT22;1691;52.486;13.374;2023-01-04T05:02:00;4.40;98.70
3356;DHT22;1691;52.486;13.374;2023-01-04T05:04:49;4.50;98.70
3356;DHT22;1691;52.486;13.374;2023-01-04T05:07:35;4.50;98.70
3356;DHT22;1691;52.486;13.374;2023-01-04T05:10:33;4.60;98.70
3356;DHT22;1691;52.486;13.374;2023-01-04T05:13:23;4.70;98.70
3356;DHT22;1691;52.486;13.374;2023-01-04T05:16:02;4.80;98.70
3356;DHT22;1691;52.486;13.374;2023-01-04T05:18:42;4.80;98.70
3356;DHT22;1691;52.486;13.374;2023-01-04T05:21:17;4.90;98.70
3356;DHT22;1691;52.486;13.374;2023-01-04T05:24:19;4.90;98.70
3356;DHT22;1691;52.486;13.374;2023-01-04T05:27:26;5.00;98.70
3356;DHT22;1691;52.486;13.374;2023-01-04T05:30:09;5.00;98.70
3356;DHT22;1691;52.486;13.374;2023-01-04T05:33:01;5.10;98.70
3356;DHT22;1691;52.486;13.374;2023-01-04T05:35:51;5.10;98.70
3356;DHT22;1691;52.486;13.374;2023-01-04T05:38:28;5.10;98.70
3356;DHT22;1691;52.486;13.374;2023-01-04T05:41:06;5.10;98.70
3356;DHT22;1691;52.486;13.374;2023-01-04T05:44:15;5.20;98.70
3356;DHT22;1691;52.486;13.374;2023-01-04T05:47:12;5.20;98.70
3356;DHT22;1691;52.486;13.374;2023-01-04T05:49:54;5.30;98.70
3356;DHT22;1691;52.486;13.374;2023-01-04T05:52:52;5.30;98.70
3356;DHT22;1691;52.486;13.374;2023-01-04T05:56:02;5.30;98.70
3356;DHT22;1691;52.486;13.374;2023-01-04T05:59:05;5.40;98.70
3356;DHT22;1691;52.486;13.374;2023-01-04T06:01:51;5.40;98.70
3356;DHT22;1691;52.486;13.374;2023-01-04T06:04:38;5.50;98.70
3356;DHT22;1691;52.486;13.374;2023-01-04T06:07:24;5.50;98.70
3356;DHT22;1691;52.486;13.374;2023-01-04T06:09:59;5.60;98.70
3356;DHT22;1691;52.486;13.374;2023-01-04T06:13:10;5.60;98.70
3356;DHT22;1691;52.486;13.374;2023-01-04T06:15:58;5.70;98.70
3356;DHT22;1691;52.486;13.374;2023-01-04T06:18:33;5.70;98.70
3356;DHT22;1691;52.486;13.374;2023-01-04T06:21:07;5.70;98.70
3356;DHT22;1691;52.486;13.374;2023-01-04T06:23:36;5.80;98.70
3356;DHT22;1691;52.486;13.374;2023-01-04T06:26:13;5.80;98.70
3356;DHT22;1691;52.486;13.374;2023-01-04T06:28:44;5.80;98.70
3356;DHT22;1691;52.486;13.374;2023-01-04T06:31:19;5.90;98.70
3356;DHT22;1691;52.486;13.374;2023-01-04T06:33:50;5.90;98.70
3356;DHT22;1691;52.486;13.374;2023-01-04T06:36:21;5.90;98.70
3356;DHT22;1691;52.486;13.374;2023-01-04T06:41:41;6.00;98.70
3356;DHT22;1691;52.486;13.374;2023-01-04T06:44:37;6.10;98.70
3356;DHT22;1691;52.486;13.374;2023-01-04T06:47:11;6.10;98.70
3356;DHT22;1691;52.486;13.374;2023-01-04T06:49:44;6.20;98.70
3356;DHT22;1691;52.486;13.374;2023-01-04T06:52:21;6.20;98.70
3356;DHT22;1691;52.486;13.374;2023-01-04T06:54:55;6.30;98.70
3356;DHT22;1691;52.486;13.374;2023-01-04T06:57:36;6.40;98.70
3356;DHT22;1691;52.486;13.374;2023-01-04T07:00:08;6.40;98.70
3356;DHT22;1691;52.486;13.374;2023-01-04T07:02:51;6.50;98.70
3356;DHT22;1691;52.486;13.374;2023-01-04T07:05:55;6.50;98.70
3356;DHT22;1691;52.486;13.374;2023-01-04T07:08:29;6.60;98.70
3356;DHT22;1691;52.486;13.374;2023-01-04T07:11:08;6.60;98.60
3356;DHT22;1691;52.486;13.374;2023-01-04T07:14:00;6.70;98.60
3356;DHT22;1691;52.486;13.374;2023-01-04T07:16:40;6.80;98.40
3356;DHT22;1691;52.486;13.374;2023-01-04T07:19:20;6.90;98.30
3356;DHT22;1691;52.486;13.374;2023-01-04T07:21:50;7.00;98.20
3356;DHT22;1691;52.486;13.374;2023-01-04T07:24:25;7.10;98.10
3356;DHT22;1691;52.486;13.374;2023-01-04T07:27:04;7.10;97.90
3356;DHT22;1691;52.486;13.374;2023-01-04T07:29:44;7.10;97.80
3356;DHT22;1691;52.486;13.374;2023-01-04T07:32:27;7.10;97.70
3356;DHT22;1691;52.486;13.374;2023-01-04T07:38:11;7.00;97.80
3356;DHT22;1691;52.486;13.374;2023-01-04T07:40:47;6.90;98.00
3356;DHT22;1691;52.486;13.374;2023-01-04T07:44:00;6.90;98.10
3356;DHT22;1691;52.486;13.374;2023-01-04T07:46:35;6.90;98.20
3356;DHT22;1691;52.486;13.374;2023-01-04T07:49:15;6.90;98.30
3356;DHT22;1691;52.486;13.374;2023-01-04T07:51:52;6.90;98.40
3356;DHT22;1691;52.486;13.374;2023-01-04T07:54:35;6.80;98.60
3356;DHT22;1691;52.486;13.374;2023-01-04T07:57:11;6.80;98.70
3356;DHT22;1691;52.486;13.374;2023-01-04T07:59:51;6.80;98.70
3356;DHT22;1691;52.486;13.374;2023-01-04T08:02:28;6.80;98.70
3356;DHT22;1691;52.486;13.374;2023-01-04T08:05:05;6.80;98.70
3356;DHT22;1691;52.486;13.374;2023-01-04T08:07:53;6.80;98.70
3356;DHT22;1691;52.486;13.374;2023-01-04T08:14:23;6.70;98.70
3356;DHT22;1691;52.486;13.374;2023-01-04T08:17:24;6.70;98.70
3356;DHT22;1691;52.486;13.374;2023-01-04T08:20:14;6.60;98.70
3356;DHT22;1691;52.486;13.374;2023-01-04T08:22:56;6.60;98.70
3356;DHT22;1691;52.486;13.374;2023-01-04T08:25:52;6.60;98.70
3356;DHT22;1691;52.486;13.374;2023-01-04T08:29:08;6.60;98.70
3356;DHT22;1691;52.486;13.374;2023-01-04T08:32:07;6.60;98.70
3356;DHT22;1691;52.486;13.374;2023-01-04T08:35:24;6.60;98.70
3356;DHT22;1691;52.486;13.374;2023-01-04T08:38:25;6.70;98.70
3356;DHT22;1691;52.486;13.374;2023-01-04T08:41:26;6.70;98.70
3356;DHT22;1691;52.486;13.374;2023-01-04T08:44:38;6.80;98.70
3356;DHT22;1691;52.486;13.374;2023-01-04T08:47:12;6.80;98.70
3356;DHT22;1691;52.486;13.374;2023-01-04T08:49:55;6.80;98.70
3356;DHT22;1691;52.486;13.374;2023-01-04T08:53:12;6.90;98.70
3356;DHT22;1691;52.486;13.374;2023-01-04T08:55:53;6.90;98.70
3356;DHT22;1691;52.486;13.374;2023-01-04T08:58:29;7.00;98.70
3356;DHT22;1691;52.486;13.374;2023-01-04T09:01:10;7.00;98.70
3356;DHT22;1691;52.486;13.374;2023-01-04T09:03:49;7.00;98.70
3356;DHT22;1691;52.486;13.374;2023-01-04T09:06:35;7.00;98.70
3356;DHT22;1691;52.486;13.374;2023-01-04T09:09:21;7.00;98.70
3356;DHT22;1691;52.486;13.374;2023-01-04T09:11:59;7.00;98.70
3356;DHT22;1691;52.486;13.374;2023-01-04T09:15:09;7.00;98.70
3356;DHT22;1691;52.486;13.374;2023-01-04T09:17:48;7.00;98.70
3356;DHT22;1691;52.486;13.374;2023-01-04T09:20:37;7.00;98.70
3356;DHT22;1691;52.486;13.374;2023-01-04T09:23:05;7.00;98.70
3356;DHT22;1691;52.486;13.374;2023-01-04T09:25:33;7.10;98.70
3356;DHT22;1691;52.486;13.374;2023-01-04T09:28:00;7.10;98.70
3356;DHT22;1691;52.486;13.374;2023-01-04T09:30:31;7.10;98.70
3356;DHT22;1691;52.486;13.374;2023-01-04T09:33:02;7.10;98.70
3356;DHT22;1691;52.486;13.374;2023-01-04T09:35:38;7.10;98.70
3356;DHT22;1691;52.486;13.374;2023-01-04T09:38:19;7.10;98.70
3356;DHT22;1691;52.486;13.374;2023-01-04T09:41:26;7.20;98.70
3356;DHT22;1691;52.486;13.374;2023-01-04T09:44:47;7.20;98.70
3356;DHT22;1691;52.486;13.374;2023-01-04T09:48:11;7.30;98.70
3356;DHT22;1691;52.486;13.374;2023-01-04T09:51:11;7.30;98.70
3356;DHT22;1691;52.486;13.374;2023-01-04T09:54:05;7.30;98.70
3356;DHT22;1691;52.486;13.374;2023-01-04T09:56:38;7.30;98.70
3356;DHT22;1691;52.486;13.374;2023-01-04T09:59:17;7.30;98.70
3356;DHT22;1691;52.486;13.374;2023-01-04T10:01:54;7.30;98.70
3356;DHT22;1691;52.486;13.374;2023-01-04T10:04:51;7.30;98.70
3356;DHT22;1691;52.486;13.374;2023-01-04T10:07:32;7.40;98.70
3356;DHT22;1691;52.486;13.374;2023-01-04T10:10:18;7.40;98.70
3356;DHT22;1691;52.486;13.374;2023-01-04T10:13:29;7.40;98.70
3356;DHT22;1691;52.486;13.374;2023-01-04T10:23:20;7.40;98.70
3356;DHT22;1691;52.486;13.374;2023-01-04T10:27:04;7.40;98.70
3356;DHT22;1691;52.486;13.374;2023-01-04T10:33:14;7.40;98.70
3356;DHT22;1691;52.486;13.374;2023-01-04T10:36:18;7.40;98.70
3356;DHT22;1691;52.486;13.374;2023-01-04T10:41:45;7.40;98.70
3356;DHT22;1691;52.486;13.374;2023-01-04T10:44:42;7.50;98.70
3356;DHT22;1691;52.486;13.374;2023-01-04T10:47:45;7.50;98.70
3356;DHT22;1691;52.486;13.374;2023-01-04T10:50:53;7.50;98.70
3356;DHT22;1691;52.486;13.374;2023-01-04T10:53:58;7.50;98.70
3356;DHT22;1691;52.486;13.374;2023-01-04T10:57:11;7.50;98.70
3356;DHT22;1691;52.486;13.374;2023-01-04T11:00:06;7.60;98.70
3356;DHT22;1691;52.486;13.374;2023-01-04T11:06:18;7.60;98.70
3356;DHT22;1691;52.486;13.374;2023-01-04T11:09:01;7.60;98.70
3356;DHT22;1691;52.486;13.374;2023-01-04T11:11:55;7.70;98.70
3356;DHT22;1691;52.486;13.374;2023-01-04T11:14:34;7.70;98.70
3356;DHT22;1691;52.486;13.374;2023-01-04T11:17:17;7.70;98.70
3356;DHT22;1691;52.486;13.374;2023-01-04T11:19:53;7.70;98.70
3356;DHT22;1691;52.486;13.374;2023-01-04T11:22:45;7.80;98.70
3356;DHT22;1691;52.486;13.374;2023-01-04T11:25:50;7.80;98.70
3356;DHT22;1691;52.486;13.374;2023-01-04T11:28:56;7.80;98.70
3356;DHT22;1691;52.486;13.374;2023-01-04T11:31:47;7.90;98.70
3356;DHT22;1691;52.486;13.374;2023-01-04T11:35:02;7.90;98.70
3356;DHT22;1691;52.486;13.374;2023-01-04T11:37:41;8.00;98.70
3356;DHT22;1691;52.486;13.374;2023-01-04T11:41:00;8.00;98.70
3356;DHT22;1691;52.486;13.374;2023-01-04T11:43:35;8.00;98.70
3356;DHT22;1691;52.486;13.374;2023-01-04T11:46:39;8.10;98.70
3356;DHT22;1691;52.486;13.374;2023-01-04T11:49:35;8.10;98.70
3356;DHT22;1691;52.486;13.374;2023-01-04T11:52:37;8.10;98.70
3356;DHT22;1691;52.486;13.374;2023-01-04T11:55:36;8.20;98.70
3356;DHT22;1691;52.486;13.374;2023-01-04T11:58:14;8.20;98.70
3356;DHT22;1691;52.486;13.374;2023-01-04T12:01:28;8.20;98.70
3356;DHT22;1691;52.486;13.374;2023-01-04T12:04:23;8.30;98.70
3356;DHT22;1691;52.486;13.374;2023-01-04T12:07:30;8.30;98.70
3356;DHT22;1691;52.486;13.374;2023-01-04T12:10:21;8.30;98.70
3356;DHT22;1691;52.486;13.374;2023-01-04T12:13:08;8.40;98.70
3356;DHT22;1691;52.486;13.374;2023-01-04T12:18:50;8.40;98.70
3356;DHT22;1691;52.486;13.374;2023-01-04T12:21:30;8.40;98.70
3356;DHT22;1691;52.486;13.374;2023-01-04T12:24:38;8.50;98.70
3356;DHT22;1691;52.486;13.374;2023-01-04T12:27:30;8.50;98.70
3356;DHT22;1691;52.486;13.374;2023-01-04T12:30:35;8.50;98.70
3356;DHT22;1691;52.486;13.374;2023-01-04T12:33:35;8.50;98.70
3356;DHT22;1691;52.486;13.374;2023-01-04T12:44:57;8.50;98.70
3356;DHT22;1691;52.486;13.374;2023-01-04T12:50:28;8.50;98.70
3356;DHT22;1691;52.486;13.374;2023-01-04T12:53:49;8.50;98.70
3356;DHT22;1691;52.486;13.374;2023-01-04T12:57:09;8.50;98.70
3356;DHT22;1691;52.486;13.374;2023-01-04T13:00:04;8.50;98.70
3356;DHT22;1691;52.486;13.374;2023-01-04T13:02:40;8.50;98.70
3356;DHT22;1691;52.486;13.374;2023-01-04T13:14:31;8.40;98.70
3356;DHT22;1691;52.486;13.374;2023-01-04T13:17:55;8.30;98.70
3356;DHT22;1691;52.486;13.374;2023-01-04T13:21:53;8.30;98.70
3356;DHT22;1691;52.486;13.374;2023-01-04T13:25:17;8.40;98.70
3356;DHT22;1691;52.486;13.374;2023-01-04T13:28:26;8.40;98.70
3356;DHT22;1691;52.486;13.374;2023-01-04T13:38:53;8.50;98.70
3356;DHT22;1691;52.486;13.374;2023-01-04T13:41:45;8.50;98.70
3356;DHT22;1691;52.486;13.374;2023-01-04T13:47:51;8.50;98.70
3356;DHT22;1691;52.486;13.374;2023-01-04T13:50:39;8.50;98.70
3356;DHT22;1691;52.486;13.374;2023-01-04T13:53:31;8.50;98.70
3356;DHT22;1691;52.486;13.374;2023-01-04T13:56:20;8.60;98.70
3356;DHT22;1691;52.486;13.374;2023-01-04T13:59:00;8.50;98.70
3356;DHT22;1691;52.486;13.374;2023-01-04T14:01:37;8.60;98.70
3356;DHT22;1691;52.486;13.374;2023-01-04T14:04:28;8.60;98.70
3356;DHT22;1691;52.486;13.374;2023-01-04T14:07:06;8.60;98.70
3356;DHT22;1691;52.486;13.374;2023-01-04T14:09:49;8.60;98.70
3356;DHT22;1691;52.486;13.374;2023-01-04T14:12:27;8.60;98.70
3356;DHT22;1691;52.486;13.374;2023-01-04T14:15:15;8.60;98.70
3356;DHT22;1691;52.486;13.374;2023-01-04T14:17:56;8.60;98.70
3356;DHT22;1691;52.486;13.374;2023-01-04T14:22:54;8.70;98.70
3356;DHT22;1691;52.486;13.374;2023-01-04T14:41:34;8.80;98.70
3356;DHT22;1691;52.486;13.374;2023-01-04T14:44:14;8.90;98.70
3356;DHT22;1691;52.486;13.374;2023-01-04T14:46:44;8.90;98.70
3356;DHT22;1691;52.486;13.374;2023-01-04T14:49:14;8.90;98.70
3356;DHT22;1691;52.486;13.374;2023-01-04T14:51:47;9.00;98.70
3356;DHT22;1691;52.486;13.374;2023-01-04T14:54:17;9.00;98.70
3356;DHT22;1691;52.486;13.374;2023-01-04T14:56:52;9.00;98.70
3356;DHT22;1691;52.486;13.374;2023-01-04T14:59:20;9.00;98.70
3356;DHT22;1691;52.486;13.374;2023-01-04T15:01:53;9.00;98.70
3356;DHT22;1691;52.486;13.374;2023-01-04T15:04:22;9.00;98.70
3356;DHT22;1691;52.486;13.374;2023-01-04T15:06:55;9.10;98.70
3356;DHT22;1691;52.486;13.374;2023-01-04T15:09:23;9.10;98.70
3356;DHT22;1691;52.486;13.374;2023-01-04T15:11:50;9.10;98.70
3356;DHT22;1691;52.486;13.374;2023-01-04T15:14:18;9.10;98.70
3356;DHT22;1691;52.486;13.374;2023-01-04T15:16:45;9.10;98.70
3356;DHT22;1691;52.486;13.374;2023-01-04T15:19:13;9.10;98.70
3356;DHT22;1691;52.486;13.374;2023-01-04T15:21:40;9.10;98.70
3356;DHT22;1691;52.486;13.374;2023-01-04T15:24:08;9.10;98.70
3356;DHT22;1691;52.486;13.374;2023-01-04T15:26:37;9.20;98.70
3356;DHT22;1691;52.486;13.374;2023-01-04T15:29:04;9.20;98.70
3356;DHT22;1691;52.486;13.374;2023-01-04T15:31:32;9.20;98.70
3356;DHT22;1691;52.486;13.374;2023-01-04T15:34:05;9.20;98.70
3356;DHT22;1691;52.486;13.374;2023-01-04T15:36:33;9.20;98.70
3356;DHT22;1691;52.486;13.374;2023-01-04T15:39:04;9.20;98.70
3356;DHT22;1691;52.486;13.374;2023-01-04T15:41:32;9.30;98.70
3356;DHT22;1691;52.486;13.374;2023-01-04T15:44:18;9.30;98.70
3356;DHT22;1691;52.486;13.374;2023-01-04T15:46:45;9.30;98.70
3356;DHT22;1691;52.486;13.374;2023-01-04T15:49:12;9.30;98.70
3356;DHT22;1691;52.486;13.374;2023-01-04T15:51:44;9.30;98.70
3356;DHT22;1691;52.486;13.374;2023-01-04T15:54:12;9.40;98.70
3356;DHT22;1691;52.486;13.374;2023-01-04T15:56:39;9.40;98.70
3356;DHT22;1691;52.486;13.374;2023-01-04T15:59:06;9.40;98.70
3356;DHT22;1691;52.486;13.374;2023-01-04T16:01:33;9.40;98.70
3356;DHT22;1691;52.486;13.374;2023-01-04T16:04:00;9.40;98.70
3356;DHT22;1691;52.486;13.374;2023-01-04T16:14:41;9.40;98.70
3356;DHT22;1691;52.486;13.374;2023-01-04T16:17:08;9.50;98.70
3356;DHT22;1691;52.486;13.374;2023-01-04T16:19:35;9.50;98.70
3356;DHT22;1691;52.486;13.374;2023-01-04T16:22:02;9.50;98.70
3356;DHT22;1691;52.486;13.374;2023-01-04T16:24:29;9.50;98.70
3356;DHT22;1691;52.486;13.374;2023-01-04T16:27:15;9.50;98.70
3356;DHT22;1691;52.486;13.374;2023-01-04T16:29:43;9.50;98.70
3356;DHT22;1691;52.486;13.374;2023-01-04T16:32:10;9.50;98.70
3356;DHT22;1691;52.486;13.374;2023-01-04T16:34:36;9.50;98.70
3356;DHT22;1691;52.486;13.374;2023-01-04T16:37:03;9.50;98.70
3356;DHT22;1691;52.486;13.374;2023-01-04T16:39:30;9.60;98.70
3356;DHT22;1691;52.486;13.374;2023-01-04T16:42:18;9.60;98.70
3356;DHT22;1691;52.486;13.374;2023-01-04T16:44:45;9.60;98.70
3356;DHT22;1691;52.486;13.374;2023-01-04T16:47:12;9.60;98.70
3356;DHT22;1691;52.486;13.374;2023-01-04T16:49:39;9.60;98.70
3356;DHT22;1691;52.486;13.374;2023-01-04T16:52:07;9.60;98.70
3356;DHT22;1691;52.486;13.374;2023-01-04T16:54:36;9.60;98.70
3356;DHT22;1691;52.486;13.374;2023-01-04T16:57:03;9.70;98.70
3356;DHT22;1691;52.486;13.374;2023-01-04T16:59:30;9.70;98.70
3356;DHT22;1691;52.486;13.374;2023-01-04T17:01:57;9.70;98.70
3356;DHT22;1691;52.486;13.374;2023-01-04T17:04:24;9.70;98.70
3356;DHT22;1691;52.486;13.374;2023-01-04T17:06:51;9.80;98.70
3356;DHT22;1691;52.486;13.374;2023-01-04T17:09:20;9.80;98.70
3356;DHT22;1691;52.486;13.374;2023-01-04T17:11:48;9.90;98.70
3356;DHT22;1691;52.486;13.374;2023-01-04T17:14:45;9.90;98.70
3356;DHT22;1691;52.486;13.374;2023-01-04T17:17:32;9.90;98.70
3356;DHT22;1691;52.486;13.374;2023-01-04T17:19:59;10.00;98.70
3356;DHT22;1691;52.486;13.374;2023-01-04T17:22:26;10.00;98.70
3356;DHT22;1691;52.486;13.374;2023-01-04T17:25:00;10.10;98.70
3356;DHT22;1691;52.486;13.374;2023-01-04T17:27:27;10.10;98.70
3356;DHT22;1691;52.486;13.374;2023-01-04T17:29:54;10.10;98.70
3356;DHT22;1691;52.486;13.374;2023-01-04T17:32:21;10.20;98.70
3356;DHT22;1691;52.486;13.374;2023-01-04T17:34:48;10.20;98.70
3356;DHT22;1691;52.486;13.374;2023-01-04T17:37:16;10.20;98.70
3356;DHT22;1691;52.486;13.374;2023-01-04T17:39:43;10.20;98.70
3356;DHT22;1691;52.486;13.374;2023-01-04T17:42:10;10.20;98.70
3356;DHT22;1691;52.486;13.374;2023-01-04T17:44:37;10.20;98.70
3356;DHT22;1691;52.486;13.374;2023-01-04T17:47:04;10.20;98.70
3356;DHT22;1691;52.486;13.374;2023-01-04T17:49:31;10.30;98.70
3356;DHT22;1691;52.486;13.374;2023-01-04T17:51:58;10.30;98.70
3356;DHT22;1691;52.486;13.374;2023-01-04T17:54:25;10.30;98.70
3356;DHT22;1691;52.486;13.374;2023-01-04T17:56:53;10.30;98.70
3356;DHT22;1691;52.486;13.374;2023-01-04T17:59:20;10.30;98.70
3356;DHT22;1691;52.486;13.374;2023-01-04T18:01:46;10.30;98.70
3356;DHT22;1691;52.486;13.374;2023-01-04T18:04:14;10.30;98.70
3356;DHT22;1691;52.486;13.374;2023-01-04T18:06:40;10.30;98.70
3356;DHT22;1691;52.486;13.374;2023-01-04T18:09:09;10.40;98.70
3356;DHT22;1691;52.486;13.374;2023-01-04T18:11:36;10.40;98.70
3356;DHT22;1691;52.486;13.374;2023-01-04T18:14:03;10.40;98.70
3356;DHT22;1691;52.486;13.374;2023-01-04T18:16:37;10.40;98.70
3356;DHT22;1691;52.486;13.374;2023-01-04T18:19:27;10.40;98.70
3356;DHT22;1691;52.486;13.374;2023-01-04T18:21:55;10.50;98.70
3356;DHT22;1691;52.486;13.374;2023-01-04T18:24:23;10.50;98.70
3356;DHT22;1691;52.486;13.374;2023-01-04T18:27:09;10.50;98.70
3356;DHT22;1691;52.486;13.374;2023-01-04T18:29:48;10.60;98.70
3356;DHT22;1691;52.486;13.374;2023-01-04T18:32:16;10.60;98.70
3356;DHT22;1691;52.486;13.374;2023-01-04T18:34:43;10.60;98.70
3356;DHT22;1691;52.486;13.374;2023-01-04T18:37:10;10.70;98.70
3356;DHT22;1691;52.486;13.374;2023-01-04T18:39:37;10.70;98.70
3356;DHT22;1691;52.486;13.374;2023-01-04T18:42:04;10.70;98.70
3356;DHT22;1691;52.486;13.374;2023-01-04T18:44:31;10.70;98.70
3356;DHT22;1691;52.486;13.374;2023-01-04T18:47:01;10.70;98.70
3356;DHT22;1691;52.486;13.374;2023-01-04T18:49:28;10.70;98.70
3356;DHT22;1691;52.486;13.374;2023-01-04T18:51:55;10.70;98.70
3356;DHT22;1691;52.486;13.374;2023-01-04T18:54:22;10.80;98.70
3356;DHT22;1691;52.486;13.374;2023-01-04T18:56:49;10.80;98.70
3356;DHT22;1691;52.486;13.374;2023-01-04T18:59:26;10.80;98.70
3356;DHT22;1691;52.486;13.374;2023-01-04T19:01:54;10.80;98.70
3356;DHT22;1691;52.486;13.374;2023-01-04T19:04:28;10.80;98.70
3356;DHT22;1691;52.486;13.374;2023-01-04T19:06:59;10.80;98.70
3356;DHT22;1691;52.486;13.374;2023-01-04T19:09:27;10.70;98.70
3356;DHT22;1691;52.486;13.374;2023-01-04T19:11:54;10.70;98.70
3356;DHT22;1691;52.486;13.374;2023-01-04T19:14:21;10.70;98.70
3356;DHT22;1691;52.486;13.374;2023-01-04T19:16:48;10.70;98.70
3356;DHT22;1691;52.486;13.374;2023-01-04T19:19:15;10.60;98.70
3356;DHT22;1691;52.486;13.374;2023-01-04T19:21:42;10.60;98.70
3356;DHT22;1691;52.486;13.374;2023-01-04T19:24:10;10.60;98.70
3356;DHT22;1691;52.486;13.374;2023-01-04T19:26:37;10.70;98.70
3356;DHT22;1691;52.486;13.374;2023-01-04T19:29:04;10.70;98.70
3356;DHT22;1691;52.486;13.374;2023-01-04T19:31:34;10.70;98.70
3356;DHT22;1691;52.486;13.374;2023-01-04T19:34:01;10.70;98.70
3356;DHT22;1691;52.486;13.374;2023-01-04T19:36:28;10.70;98.70